Terminal Aerodrome Forecast
Issued by NWS

Home | Current Version | Previous Version | Text Only | Print | Product List | Glossary On
Versions: 1 2 3 4 5 6 7 8 9 10 11 12 13 14
000
FTUS43 KDTX 242338
TAFPTK
TAF
KPTK 242338Z 2500/2524 21005KT P6SM BKN250
     FM251300 21010KT P6SM SCT080 SCT150
     FM251900 22008KT P6SM SCT060 BKN200=

USA.gov is the U.S. government's official web portal to all federal, state and local government web resources and services.